Paulistana II — 00 — position and weather

sailwx.info

Track history (hours):
 
Tides and Currents Weather Stations Pressure Air Temp Water Temp Dewpoint Dewpoint Depression Visibility Wind Speed Wind Dir Waves Ship Positions

Paulistana II

Last reported at 2014-Dec-22 01:33 UTC. Time now 2014-Dec-22 02:05 UTC.
Position N 23°05' E 113°26'.

Length 6 m.

Type: Pollution control. MMSI: 316014038.

Date/timePositionNaut miles runAvg speedWind from/ knotsBaromVisibWave heightAir tempDewpointWater temp
2014-Dec-22 01:33N 23°05' E 113°26'66348695.5
2014-Dec-22 01:32N 31°22' E 121°39'81971.4
2014-Dec-22 01:32N 31°21' E 121°30'63250.9
2014-Dec-22 01:17N 32°01' E 120°34'4293089.4
2014-Dec-22 01:08N 38°51' E 117°56'9741672.2
2014-Dec-22 00:33N 23°05' E 113°26'660139709.2
2014-Dec-22 00:33N 31°24' E 121°31'48015285.4
2014-Dec-22 00:31N 38°51' E 117°55'48558152.1
2014-Dec-22 00:31N 31°22' E 121°39'663690.8
2014-Dec-21 23:33N 23°05' E 113°26'66316803.1
2014-Dec-21 23:31N 31°22' E 121°39'62583.9
2014-Dec-21 23:24N 32°04' E 120°45'337.7
2014-Dec-21 23:19N 32°01' E 120°44'661866.3
2014-Dec-21 22:33N 23°05' E 113°26'66319719.4
2014-Dec-21 22:31N 31°22' E 121°39'48910677.9
2014-Dec-21 22:29N 38°55' E 117°53'489531.3
2014-Dec-21 21:33N 31°22' E 121°39'48997877.5
2014-Dec-21 21:33N 38°55' E 117°53'977982.8
2014-Dec-21 20:33N 23°05' E 113°26'977146561.3
2014-Dec-21 20:33N 38°55' E 117°53'48958729.2
2014-Dec-21 20:33N 31°22' E 121°39'663666.3
2014-Dec-21 19:33N 23°05' E 113°26'66311930.2
2014-Dec-21 19:30N 31°22' E 121°39'48911668.6
2014-Dec-21 19:27N 38°55' E 117°53'9771089.4
2014-Dec-21 18:33N 23°05' E 113°26'977251249.5
2014-Dec-21 18:33N 38°55' E 117°53'48976604.1
2014-Dec-21 18:33N 31°22' E 121°39'3786.0
2014-Dec-21 18:07N 31°45' E 121°06'458809.4
2014-Dec-21 17:33N 38°55' E 117°53'977146563.9
2014-Dec-21 17:33N 23°05' E 113°26'66121620.6
2014-Dec-21 17:31N 31°42' E 121°10'321654.2
2014-Dec-21 17:30N 31°22' E 121°39'353891.3
2014-Dec-21 17:06N 25°46' E 119°39'376684.6
2014-Dec-21 16:33N 23°05' E 113°26'663119302.4
2014-Dec-21 16:33N 31°22' E 121°39'663670.2
2014-Dec-21 15:33N 23°05' E 113°26'66361179.9
2014-Dec-21 15:33N 31°22' E 121°39'663672.3
2014-Dec-21 14:33N 23°05' E 113°26'66345885.2
2014-Dec-21 14:33N 31°22' E 121°39'391451.6
2014-Dec-21 14:31N 31°45' E 121°03'3233.4
2014-Dec-21 13:33N 31°23' E 121°31'65962407.3
2014-Dec-21 13:33N 23°05' E 113°26'0 0.0
2014-Dec-21 12:33N 23°05' E 113°26'66359646.4
2014-Dec-21 12:33N 31°22' E 121°39'51190.5
2014-Dec-21 12:17N 31°53' E 120°53'660914.1
2014-Dec-21 11:33N 23°05' E 113°26'66312050.6
2014-Dec-21 11:30N 31°22' E 121°39'663693.0
2014-Dec-21 10:33N 23°05' E 113°26'66322509.6
2014-Dec-21 10:31N 31°22' E 121°39'4906066.9
2014-Dec-21 10:26N 38°53' E 117°45'4381321.0
2014-Dec-21 10:06N 32°00' E 120°42'62113.5
2014-Dec-21 09:33N 31°22' E 121°39'488351682.7
2014-Dec-21 09:33N 38°52' E 117°47'9733502642.6
2014-Dec-21 09:33N 23°05' E 113°26'0 0.0
2014-Dec-21 08:33N 23°05' E 113°26'65652481.1
2014-Dec-21 08:33N 32°00' E 120°34'681251.8
2014-Dec-21 08:29N 31°21' E 121°39'7176.0
2014-Dec-21 07:34N 32°01' E 120°31'7150851.4
2014-Dec-21 07:33N 31°21' E 121°39'661595258.8
2014-Dec-21 07:33N 23°05' E 113°26'97385457.0
2014-Dec-21 07:33N 38°52' E 117°48'4571039.4
2014-Dec-21 07:06N 31°45' E 121°10'3563.7
2014-Dec-21 06:33N 31°21' E 121°39'66128345.5
2014-Dec-21 06:32N 23°05' E 113°26'662682.4
2014-Dec-21 05:33N 31°40' E 121°16'243630.7
2014-Dec-21 05:33N 31°22' E 121°36'66117883.3
2014-Dec-21 05:31N 23°05' E 113°26'9733044.7
2014-Dec-21 05:12N 38°52' E 117°48'487767.4
2014-Dec-21 04:34N 31°22' E 121°36'661792865.5
2014-Dec-21 04:33N 23°05' E 113°26'32524878.5
2014-Dec-21 04:33N 24°53' E 119°02'42020697.9
2014-Dec-21 04:31N 31°35' E 121°19'1414.9
2014-Dec-21 03:34N 31°25' E 121°31'660475161.6
2014-Dec-21 03:33N 23°05' E 113°26'6612377820.0
2014-Dec-21 03:33N 31°31' E 121°24'42030258.6
2014-Dec-21 03:33N 24°51' E 118°59'418425.1
2014-Dec-21 02:34N 31°28' E 121°26'660593726.1
2014-Dec-21 02:33N 23°05' E 113°26'31942518.1
2014-Dec-21 02:33N 24°48' E 118°56'42115608.7
2014-Dec-21 02:31N 31°26' E 121°30'7722.4
2014-Dec-21 02:31N 31°21' E 121°26'1313.9
2014-Dec-21 01:33N 31°33' E 121°20'659395674.1
2014-Dec-21 01:33N 23°05' E 113°26'316103385.4
2014-Dec-21 01:33N 24°46' E 118°54'419137143.3
2014-Dec-21 01:33N 31°21' E 121°31'21786.3
2014-Dec-21 01:33N 31°22' E 121°28'656661.1
2014-Dec-21 00:33N 23°05' E 113°26'66055278.9
2014-Dec-21 00:32N 31°38' E 121°14'660664.7
2014-Dec-20 23:33N 23°05' E 113°26'660108038.9
2014-Dec-20 23:32N 31°38' E 121°14'50308.0
2014-Dec-20 23:23N 31°58' E 120°20'5 6.0
2014-Dec-20 22:32N 31°56' E 120°15'643578658.6
2014-Dec-20 22:32N 23°05' E 113°26'66013981.5
2014-Dec-20 22:29N 31°38' E 121°14'660705.3
2014-Dec-20 21:33N 23°05' E 113°26'66046607.4
2014-Dec-20 21:32N 31°38' E 121°14'0 0.1
2014-Dec-20 20:32N 31°38' E 121°14'6608803.2
2014-Dec-20 20:28N 23°05' E 113°26'0 0.0
2014-Dec-20 19:33N 23°05' E 113°26'66044018.4
2014-Dec-20 19:32N 31°38' E 121°14'660666.4
2014-Dec-20 18:33N 23°05' E 113°26'66067913.6
2014-Dec-20 18:32N 31°38' E 121°14'660666.8
2014-Dec-20 17:33N 23°05' E 113°26'66011211.5
2014-Dec-20 17:29N 31°38' E 121°14'4632655.5
2014-Dec-20 17:19N 24°22' E 118°18'8721145.9
2014-Dec-20 16:33N 38°53' E 117°52'975219370.9
2014-Dec-20 16:33N 23°05' E 113°26'66062548.5
2014-Dec-20 16:32N 31°38' E 121°14'660663.7
2014-Dec-20 15:33N 23°05' E 113°26'660113182.9
2014-Dec-20 15:32N 31°38' E 121°14'3 2.6
2014-Dec-20 14:34N 31°40' E 121°12'660198122.0
2014-Dec-20 14:33N 23°05' E 113°26'0 0.0
2014-Dec-20 13:33N 23°05' E 113°26'660139811.8
2014-Dec-20 13:33N 31°45' E 121°04'660653.5
2014-Dec-20 12:33N 23°05' E 113°26'65894810.8
2014-Dec-20 12:32N 31°50' E 120°54'658671.5
2014-Dec-20 11:33N 23°05' E 113°26'663341178.8
2014-Dec-20 11:33N 31°59' E 120°50'9 8.9
2014-Dec-20 10:33N 31°60' E 120°39'658474083.7
2014-Dec-20 10:33N 23°05' E 113°26'97310157.4
2014-Dec-20 10:28N 38°51' E 117°56'426471.5
2014-Dec-20 09:33N 32°04' E 120°31'658473483.0
2014-Dec-20 09:33N 23°05' E 113°26'651652.3
2014-Dec-20 08:34N 32°01' E 120°23'651292953.9
2014-Dec-20 08:33N 23°05' E 113°26'65974170.5
2014-Dec-20 08:33N 31°30' E 121°24'4556969.6
2014-Dec-20 08:29N 24°37' E 117°46'4671677.5
2014-Dec-20 08:12N 32°01' E 120°31'1319.8
2014-Dec-20 07:33N 31°57' E 120°17'64551582.9
2014-Dec-20 07:33N 23°05' E 113°26'65421226.8
2014-Dec-20 07:31N 32°02' E 120°28'42761492.8
2014-Dec-20 07:30N 38°49' E 117°52'86414888.6
2014-Dec-20 07:27N 24°25' E 118°02'265296.5
2014-Dec-20 06:33N 23°05' E 113°26'640768450.0
2014-Dec-20 06:33N 31°56' E 120°10'14500.0
2014-Dec-20 06:32N 32°01' E 120°26'4763526.4
2014-Dec-20 06:23N 24°25' E 117°53'86710404.5
2014-Dec-20 06:18N 38°52' E 117°47'428571.1
2014-Dec-20 05:33N 31°58' E 120°02'18572.8
2014-Dec-20 05:32N 31°60' E 120°23'65131256.1
2014-Dec-20 05:30N 23°04' E 113°26'648681.3
2014-Dec-20 04:33N 31°58' E 120°20'228654.6
2014-Dec-20 04:33N 32°04' E 119°55'64132050.5
2014-Dec-20 04:32N 23°04' E 113°26'648635.7
2014-Dec-20 03:31N 32°13' E 119°53'64838850.6
2014-Dec-20 03:30N 23°04' E 113°26'0 0.0
2014-Dec-20 02:32N 23°04' E 113°26'658641.2
2014-Dec-20 01:31N 31°19' E 121°33'65847382.5
2014-Dec-20 01:30N 23°04' E 113°26'659689.7
2014-Dec-20 00:33N 31°23' E 121°30'6593648.0
2014-Dec-20 00:22N 23°04' E 113°26'660818.2
2014-Dec-19 23:33N 31°26' E 121°29'66019813.0
2014-Dec-19 23:31N 23°04' E 113°26'0 0.0
2014-Dec-19 22:32N 23°04' E 113°26'6609357.3
2014-Dec-19 22:28N 31°30' E 121°24'539525861.0
2014-Dec-19 22:15N 49°18' W 122°53'53957707.6
2014-Dec-19 21:33N 31°33' E 121°19'6609106.6
2014-Dec-19 21:29N 23°04' E 113°26'0 0.0
2014-Dec-19 20:33N 23°04' E 113°26'66138391.3
2014-Dec-19 20:32N 31°38' E 121°14'6 6.3
2014-Dec-19 19:33N 31°42' E 121°09'6617905.2
2014-Dec-19 19:28N 23°04' E 113°26'1 1.1
2014-Dec-19 18:33N 23°05' E 113°26'6622383460.8
2014-Dec-19 18:33N 31°46' E 121°06'662662.1
2014-Dec-19 17:33N 23°05' E 113°26'650652.7
2014-Dec-19 16:33N 32°00' E 120°23'650180097.3
2014-Dec-19 16:33N 23°05' E 113°26'0 0.0
2014-Dec-19 15:33N 23°05' E 113°26'6555289.9
2014-Dec-19 15:26N 32°02' E 120°29'655745.7
2014-Dec-19 14:33N 23°05' E 113°26'6562390.4
2014-Dec-19 14:17N 32°02' E 120°31'656887.5
2014-Dec-19 13:32N 23°05' E 113°26'65662151.8
2014-Dec-19 13:32N 32°02' E 120°31'0 0.0
2014-Dec-19 12:33N 32°02' E 120°31'65654924.4
2014-Dec-19 12:32N 23°05' E 113°26'0 0.0
2014-Dec-19 11:33N 23°05' E 113°26'6563079.2
2014-Dec-19 11:21N 32°02' E 120°31'656827.2
2014-Dec-19 10:33N 23°05' E 113°26'6561776.4
2014-Dec-19 10:11N 32°02' E 120°31'6561046.9
2014-Dec-19 09:33N 23°05' E 113°26'6563863.9
2014-Dec-19 09:23N 32°02' E 120°31'656784.6
2014-Dec-19 08:33N 23°05' E 113°26'0 0.0
2014-Dec-19 07:33N 23°05' E 113°26'6383375.1
2014-Dec-19 07:22N 32°00' E 119°60'640791.7
2014-Dec-19 06:33N 23°01' E 113°32'64165884.9
2014-Dec-19 06:33N 31°58' E 120°05'7 7.1
2014-Dec-19 05:34N 31°57' E 120°13'64417289.5
2014-Dec-19 05:31N 23°01' E 113°32'650674.2
2014-Dec-19 04:33N 31°60' E 120°21'65015592.4
2014-Dec-19 04:31N 23°01' E 113°32'0 0.0
2014-Dec-19 03:33N 23°01' E 113°32'656786685.5
2014-Dec-19 03:33N 32°02' E 120°28'656663.7
2014-Dec-19 02:33N 23°01' E 113°32'658592168.0
2014-Dec-19 02:33N 32°01' E 120°35'311344.6
2014-Dec-19 02:32N 31°45' E 121°06'4552507.2
2014-Dec-19 02:21N 38°50' E 117°49'0 0.0
2014-Dec-19 01:33N 38°50' E 117°49'433194907.2
2014-Dec-19 01:33N 32°00' E 120°42'66131722.3
2014-Dec-19 01:32N 23°01' E 113°32'6652920.6
2014-Dec-19 01:18N 32°04' E 120°45'665889.9
2014-Dec-19 00:33N 23°01' E 113°32'9753712.5
2014-Dec-19 00:18N 38°50' E 117°49'4301813.5
2014-Dec-19 00:03N 32°04' E 120°45'6661315.7
2014-Dec-18 23:33N 23°01' E 113°32'9742985.0
2014-Dec-18 23:14N 38°50' E 117°49'9741412.2
2014-Dec-18 22:32N 23°01' E 113°32'659201.3
2014-Dec-18 19:16N 31°23' E 121°30'4 5.0
2014-Dec-18 18:30N 31°21' E 121°27'1 1.1
2014-Dec-18 17:26N 31°21' E 121°26'0 0.0
2014-Dec-18 16:27N 31°21' E 121°26'3134.0
2014-Dec-18 15:31N 31°47' E 121°06'6 5.8
2014-Dec-18 14:28N 31°42' E 121°09'25146.8
2014-Dec-18 14:18N 31°21' E 121°26'854.3
2014-Dec-18 14:09N 31°23' E 121°34'2337.3
2014-Dec-18 13:33N 31°38' E 121°15'6 5.9
2014-Dec-18 12:33N 31°34' E 121°19'47119700.7
2014-Dec-18 12:32N 38°52' E 117°48'1107.1
2014-Dec-18 12:31N 38°51' E 117°49'1 4.5
2014-Dec-18 12:20N 38°50' E 117°49'473614.0
2014-Dec-18 11:34N 31°31' E 121°25'4731077.4
2014-Dec-18 11:07N 38°50' E 117°49'478799.2
2014-Dec-18 10:31N 31°27' E 121°29'47823557.1
2014-Dec-18 10:30N 38°50' E 117°49'482508.3
2014-Dec-18 09:33N 31°24' E 121°31'480998.7
2014-Dec-18 09:04N 38°50' E 117°54'4 8.1
2014-Dec-18 08:33N 38°48' E 117°49'4858737.8
2014-Dec-18 08:30N 31°19' E 121°34'484116.5
2014-Dec-18 04:21N 38°47' E 117°50'4 2.0
2014-Dec-18 02:33N 38°47' E 117°55'5 4.7
2014-Dec-18 01:28N 38°49' E 117°49'479.8
2014-Dec-18 01:25N 38°48' E 117°54'4 4.8
2014-Dec-18 00:33N 38°50' E 117°49'4893532.7
2014-Dec-18 00:25N 31°17' E 121°34'774.0
2014-Dec-18 00:19N 31°22' E 121°28'1 1.4
2014-Dec-17 23:33N 31°22' E 121°29'35153.3
2014-Dec-17 23:33N 31°21' E 121°32'48711533.2
2014-Dec-17 23:31N 38°52' E 117°47'484504.9
2014-Dec-17 22:33N 31°24' E 121°31'5 4.6
2014-Dec-17 21:33N 31°27' E 121°27'5 4.7
2014-Dec-17 20:32N 31°30' E 121°23'5 5.3
2014-Dec-17 19:33N 31°34' E 121°18'4642124.4
2014-Dec-17 19:20N 38°47' E 117°52'518230385.5
2014-Dec-17 19:10N 49°18' W 122°53'53958662.4
2014-Dec-17 18:33N 31°38' E 121°14'5395202295.3
2014-Dec-17 18:31N 49°18' W 122°53'517916441.6
2014-Dec-17 18:12N 38°48' E 117°55'318.2
2014-Dec-17 18:04N 38°47' E 117°52'454879.5
2014-Dec-17 17:33N 31°42' E 121°09'454544375.5
2014-Dec-17 17:33N 38°47' E 117°55'0 0.4
2014-Dec-17 17:15N 38°47' E 117°55'1 0.8
2014-Dec-17 16:33N 38°47' E 117°54'44938503.9
2014-Dec-17 16:32N 31°46' E 121°06'4501897.4
2014-Dec-17 16:18N 38°47' E 117°52'1 1.8
2014-Dec-17 15:28N 38°47' E 117°54'1 3.3
2014-Dec-17 15:12N 38°47' E 117°55'1 0.9
2014-Dec-17 14:30N 38°47' E 117°56'410.0
2014-Dec-17 14:06N 38°47' E 117°51'1 2.4
2014-Dec-17 13:31N 38°48' E 117°53'3 7.8
2014-Dec-17 13:11N 38°47' E 117°56'0 0.0
2014-Dec-17 12:27N 38°47' E 117°56'0 0.3
2014-Dec-17 11:30N 38°47' E 117°56'115.5
2014-Dec-17 11:25N 38°47' E 117°54'2 1.4
2014-Dec-17 10:19N 38°47' E 117°56'2 2.3
2014-Dec-17 09:25N 38°47' E 117°53'233.2
2014-Dec-17 09:22N 38°47' E 117°56'2 1.8
2014-Dec-17 08:26N 38°46' E 117°56'2 1.7
2014-Dec-17 07:31N 38°45' E 117°54'8 3.7
2014-Dec-17 05:27N 38°53' E 117°56'4621652.4
2014-Dec-17 05:10N 31°39' E 121°13'3 4.8
2014-Dec-17 04:32N 31°41' E 121°10'4 3.9
2014-Dec-17 03:33N 31°43' E 121°06'415.4
2014-Dec-17 03:18N 31°47' E 121°06'0 0.5
2014-Dec-17 02:33N 31°47' E 121°06'45212513.8
2014-Dec-17 02:31N 38°50' E 117°52'798.2
2014-Dec-17 02:27N 38°53' E 117°44'4592003.9
2014-Dec-17 02:13N 31°45' E 121°04'454557.0
2014-Dec-17 01:24N 38°50' E 117°50'421475.8
2014-Dec-17 00:31N 32°02' E 119°57'711076.5
2014-Dec-17 00:27N 31°38' E 121°16'6672.7
2014-Dec-16 23:33N 31°58' E 120°03'706835.7
2014-Dec-16 23:32N 31°34' E 121°20'4732859.4
2014-Dec-16 23:23N 38°53' E 117°44'433529.4
2014-Dec-16 22:33N 31°56' E 120°09'692393.0
2014-Dec-16 22:32N 31°31' E 121°25'4 4.5
2014-Dec-16 21:33N 31°28' E 121°28'68122742.9
2014-Dec-16 21:33N 31°57' E 120°16'6 6.1
2014-Dec-16 20:33N 32°00' E 120°22'697311.4
2014-Dec-16 20:33N 31°25' E 121°32'43118.2
2014-Dec-16 20:11N 31°52' E 120°53'2539.1
2014-Dec-16 19:33N 32°04' E 120°28'2210025.5
2014-Dec-16 19:33N 31°55' E 120°52'492672.7
2014-Dec-16 19:32N 31°20' E 121°33'6464.8
2014-Dec-16 18:33N 32°02' E 120°35'1033.8
2014-Dec-16 18:14N 32°00' E 120°47'5 6.7
2014-Dec-16 17:33N 32°00' E 120°41'6 6.4
2014-Dec-16 16:33N 32°00' E 120°49'6 6.5
2014-Dec-16 15:33N 31°55' E 120°53'6647714.7
2014-Dec-16 15:28N 22°58' E 113°32'6584665.2
2014-Dec-16 15:20N 32°02' E 120°30'2633.1
2014-Dec-16 14:33N 31°48' E 120°56'283094.1
2014-Dec-16 14:33N 32°02' E 120°27'65424537.0
2014-Dec-16 14:31N 23°01' E 113°32'651670.4
2014-Dec-16 13:33N 31°60' E 120°23'39370.3
2014-Dec-16 13:27N 31°45' E 121°05'66134495.7
2014-Dec-16 13:26N 23°01' E 113°32'661758.0
2014-Dec-16 12:33N 31°41' E 121°11'66176774.1
2014-Dec-16 12:33N 23°01' E 113°32'661663.6
2014-Dec-16 11:33N 31°36' E 121°18'66133985.2
2014-Dec-16 11:32N 23°01' E 113°32'661678.8
2014-Dec-16 10:33N 31°31' E 121°24'661475718.1
2014-Dec-16 10:33N 23°01' E 113°32'660661.3
2014-Dec-16 09:33N 31°26' E 121°30'660237671.1
2014-Dec-16 09:33N 23°02' E 113°31'661663.3
2014-Dec-16 08:33N 31°23' E 121°36'66176810.3
2014-Dec-16 08:33N 23°02' E 113°31'662667.9
2014-Dec-16 07:33N 31°20' E 121°41'662238429.9
2014-Dec-16 07:33N 23°02' E 113°31'662663.3
2014-Dec-16 06:33N 31°20' E 121°41'6433170.0
2014-Dec-16 06:33N 32°00' E 120°42'66030478.9
2014-Dec-16 06:32N 23°01' E 113°32'662678.3
2014-Dec-16 05:33N 31°20' E 121°41'66274442.6
2014-Dec-16 05:33N 23°02' E 113°31'0 0.0
2014-Dec-16 04:27N 23°02' E 113°31'6627068.2
2014-Dec-16 04:22N 31°20' E 121°41'662801.5
2014-Dec-16 03:32N 23°02' E 113°31'66222261.6
2014-Dec-16 03:30N 31°20' E 121°41'662686.3
2014-Dec-16 02:33N 23°02' E 113°31'6623829.6
2014-Dec-16 02:22N 31°20' E 121°41'662546.8
2014-Dec-16 01:10N 23°02' E 113°31'66213689.6
2014-Dec-16 01:07N 31°20' E 121°41'662778.2
2014-Dec-16 00:16N 23°02' E 113°31'662938.6
2014-Dec-15 23:33N 31°20' E 121°41'66234030.5
2014-Dec-15 23:32N 23°02' E 113°31'662675.0
2014-Dec-15 22:33N 31°20' E 121°41'662340289.6
2014-Dec-15 22:33N 23°02' E 113°31'619222814.7
2014-Dec-15 22:17N 49°18' W 122°53'591670293.5
2014-Dec-15 22:12N 24°25' E 117°52'461717.6
2014-Dec-15 21:33N 31°20' E 121°41'662216547.9
2014-Dec-15 21:33N 23°02' E 113°31'61841855107.8
2014-Dec-15 21:33N 49°18' W 123°03'590529078.5
2014-Dec-15 21:21N 24°24' E 117°58'460581.3
2014-Dec-15 20:33N 31°20' E 121°41'662216546.5
2014-Dec-15 20:33N 23°02' E 113°31'6182138232.1
2014-Dec-15 20:31N 49°19' W 123°05'589751402.1
2014-Dec-15 20:24N 24°24' E 118°06'4672547.7
2014-Dec-15 20:13N 32°00' E 119°59'639972.3
2014-Dec-15 19:33N 23°02' E 113°31'61802781052.5
2014-Dec-15 19:33N 49°18' W 123°08'5893241078.1
2014-Dec-15 19:32N 24°21' E 118°12'46838267.5
2014-Dec-15 19:31N 31°58' E 120°02'9211876.1
2014-Dec-15 19:30N 31°20' E 121°41'0 0.0
2014-Dec-15 18:33N 31°20' E 121°41'662183232.9
2014-Dec-15 18:33N 23°02' E 113°31'61825564058.1
2014-Dec-15 18:33N 49°17' W 123°05'5420207576.2
2014-Dec-15 18:32N 31°57' E 120°08'8790.2
2014-Dec-15 17:33N 31°20' E 121°41'662264669.7
2014-Dec-15 17:33N 23°02' E 113°31'64318517.9
2014-Dec-15 17:31N 31°56' E 120°14'5425107893.4
2014-Dec-15 17:28N 49°18' W 122°53'53915916.4
2014-Dec-15 16:34N 31°20' E 121°41'7914274.6
2014-Dec-15 16:33N 31°59' E 120°19'648166591.5
2014-Dec-15 16:33N 23°02' E 113°31'661667.1
2014-Dec-15 15:34N 31°22' E 121°35'72130146.3
2014-Dec-15 15:33N 32°02' E 120°25'65473535.6
2014-Dec-15 15:33N 23°02' E 113°31'658663.0
2014-Dec-15 14:33N 32°04' E 120°32'693082.8
2014-Dec-15 14:32N 31°22' E 121°35'66125574.6
2014-Dec-15 14:30N 23°01' E 113°32'661694.4
2014-Dec-15 13:33N 31°22' E 121°35'6228063.2
2014-Dec-15 13:33N 32°00' E 120°37'65818370.7
2014-Dec-15 13:31N 23°01' E 113°32'663689.4
2014-Dec-15 12:33N 31°22' E 121°39'6637531.1
2014-Dec-15 12:28N 23°01' E 113°32'6642246.9
2014-Dec-15 12:10N 32°01' E 120°48'44512421.5
2014-Dec-15 12:08N 24°47' E 118°56'4 7.3
2014-Dec-15 11:33N 24°50' E 118°59'31912628.0
2014-Dec-15 11:32N 23°04' E 113°30'662238408.7
2014-Dec-15 11:32N 31°22' E 121°39'52178.9
2014-Dec-15 11:14N 31°56' E 120°52'662981.0
2014-Dec-15 10:33N 23°05' E 113°27'66316927.1
2014-Dec-15 10:31N 31°22' E 121°39'4943830.6
2014-Dec-15 10:31N 31°52' E 120°54'660687.7
2014-Dec-15 09:33N 23°05' E 113°27'65235561.4
2014-Dec-15 09:32N 32°01' E 120°25'743568.1
2014-Dec-15 09:31N 31°22' E 121°39'78500.1
2014-Dec-15 09:22N 31°57' E 120°17'38673.5
2014-Dec-15 09:18N 31°47' E 120°60'658880.5
2014-Dec-15 08:33N 23°06' E 113°27'64750659.3
2014-Dec-15 08:33N 31°58' E 120°22'752843.2
2014-Dec-15 08:31N 31°22' E 121°39'36275.1
2014-Dec-15 08:23N 31°45' E 121°06'3845.1
2014-Dec-15 07:33N 31°57' E 120°24'64840898.7
2014-Dec-15 07:32N 23°06' E 113°27'66237842.8
2014-Dec-15 07:31N 31°22' E 121°39'30103.1
2014-Dec-15 07:14N 31°41' E 121°12'4 5.2
2014-Dec-15 06:32N 31°38' E 121°15'6601187855.6
2014-Dec-15 06:32N 23°06' E 113°27'647211882.3
2014-Dec-15 06:32N 31°57' E 120°24'725213.8
2014-Dec-15 06:31N 31°22' E 121°39'2121.8
2014-Dec-15 05:33N 31°34' E 121°19'6592373496.3
2014-Dec-15 05:33N 23°06' E 113°27'6627404.2
2014-Dec-15 05:28N 31°22' E 121°39'663728.3
2014-Dec-15 04:33N 23°05' E 113°26'66095085.6
2014-Dec-15 04:33N 31°31' E 121°24'16187.5
2014-Dec-15 04:28N 31°22' E 121°39'57178.8
2014-Dec-15 04:09N 32°00' E 120°49'6641121.0
2014-Dec-15 03:33N 23°05' E 113°26'6601188616.4
2014-Dec-15 03:33N 31°28' E 121°28'11271.8
2014-Dec-15 03:31N 31°22' E 121°39'7 7.3
2014-Dec-15 02:33N 31°24' E 121°31'659474527.8
2014-Dec-15 02:33N 23°05' E 113°26'66318218.0
2014-Dec-15 02:31N 31°22' E 121°39'49181.3
2014-Dec-15 02:15N 31°52' E 120°54'659926.9
2014-Dec-15 01:32N 23°05' E 113°28'656214634.7
2014-Dec-15 01:32N 31°21' E 121°31'8474.4
2014-Dec-15 01:31N 31°22' E 121°39'8 7.9
2014-Dec-15 00:33N 31°21' E 121°31'65935406.5
2014-Dec-15 00:32N 22°59' E 113°32'66533251.2
2014-Dec-15 00:31N 31°22' E 121°39'8 7.7
2014-Dec-14 23:31N 31°21' E 121°31'83440.7
2014-Dec-14 23:31N 31°22' E 121°39'333757.5
2014-Dec-14 23:31N 31°43' E 121°08'2929.2
2014-Dec-14 22:31N 31°21' E 121°31'81448.5
2014-Dec-14 22:31N 31°22' E 121°39'8 7.9
2014-Dec-14 21:33N 31°21' E 121°31'8213.4
2014-Dec-14 21:31N 31°22' E 121°39'831.2
2014-Dec-14 21:16N 31°16' E 121°34'3 4.3
2014-Dec-14 20:32N 31°20' E 121°33'3352.0
2014-Dec-14 20:32N 31°21' E 121°31'8500.4
2014-Dec-14 20:31N 31°22' E 121°39'8 8.5
2014-Dec-14 19:33N 31°22' E 121°30'180.1
2014-Dec-14 19:32N 31°21' E 121°31'8357.5
2014-Dec-14 19:31N 31°22' E 121°39'734.0
2014-Dec-14 19:19N 31°24' E 121°31'2 2.1
2014-Dec-14 18:32N 31°25' E 121°30'4113.3
2014-Dec-14 18:30N 31°21' E 121°31'8186.0
2014-Dec-14 18:28N 31°22' E 121°39'11509.0
2014-Dec-14 18:27N 31°21' E 121°27'3 3.7
2014-Dec-14 17:33N 31°21' E 121°31'8872.3
2014-Dec-14 17:33N 31°28' E 121°26'13402.9
2014-Dec-14 17:31N 31°22' E 121°39'8 8.0
2014-Dec-14 16:33N 31°21' E 121°31'8213.1
2014-Dec-14 16:31N 31°22' E 121°39'18168.5
2014-Dec-14 16:24N 31°32' E 121°21'1315.6
2014-Dec-14 15:33N 31°21' E 121°31'8206.9
2014-Dec-14 15:31N 31°22' E 121°39'23633.7
2014-Dec-14 15:29N 31°35' E 121°17'1819.4
2014-Dec-14 14:33N 31°21' E 121°31'232240.3
2014-Dec-14 14:32N 31°39' E 121°13'281184.2
2014-Dec-14 14:31N 31°22' E 121°39'3334.3
2014-Dec-14 13:33N 31°42' E 121°08'2833824.4
2014-Dec-14 13:33N 31°21' E 121°31'8184.7
2014-Dec-14 13:31N 31°22' E 121°39'4899474.0
2014-Dec-14 13:28N 38°55' E 117°52'488539.3
2014-Dec-14 12:33N 31°21' E 121°31'323860.0
2014-Dec-14 12:33N 31°46' E 121°06'37436.6
2014-Dec-14 12:28N 31°22' E 121°39'3841.3
2014-Dec-14 11:33N 31°47' E 121°06'334624.4
2014-Dec-14 11:33N 31°21' E 121°31'8271.6
2014-Dec-14 11:31N 31°22' E 121°39'8 7.9
2014-Dec-14 10:33N 31°21' E 121°31'331114.2
2014-Dec-14 10:31N 31°47' E 121°06'38727.4
2014-Dec-14 10:28N 31°22' E 121°39'3841.0
2014-Dec-14 09:33N 31°47' E 121°06'332406.7
2014-Dec-14 09:32N 31°21' E 121°31'8483.0
2014-Dec-14 09:31N 31°22' E 121°39'8 7.9
2014-Dec-14 08:33N 31°21' E 121°31'8243.6
2014-Dec-14 08:31N 31°22' E 121°39'1111.3
2014-Dec-14 07:33N 31°21' E 121°27'3101.8
2014-Dec-14 07:31N 31°21' E 121°31'480576293.5
2014-Dec-14 07:31N 38°47' E 117°53'48278832.2
2014-Dec-14 07:31N 31°22' E 121°39'7 7.5
2014-Dec-14 06:33N 31°24' E 121°31'7219.8
2014-Dec-14 06:31N 31°22' E 121°39'836.6
2014-Dec-14 06:18N 31°23' E 121°30'4 4.8
2014-Dec-14 05:33N 31°23' E 121°34'551.7
2014-Dec-14 05:28N 31°22' E 121°39'5 4.9
2014-Dec-14 04:33N 31°23' E 121°34'534.4
2014-Dec-14 04:25N 31°22' E 121°39'5 5.2
2014-Dec-14 03:33N 31°23' E 121°34'5125.1
2014-Dec-14 03:31N 31°22' E 121°39'69264.6
2014-Dec-14 03:15N 32°02' E 120°32'3 4.8
2014-Dec-14 02:33N 32°01' E 120°36'6222450.3
2014-Dec-14 02:33N 31°23' E 121°34'48016465.8
2014-Dec-14 02:31N 38°48' E 117°53'48269433.7
2014-Dec-14 02:31N 31°22' E 121°39'5 4.7
2014-Dec-14 01:33N 31°23' E 121°34'74171668884.2
2014-Dec-14 01:32N 29°33' W 095°02'7413296516.1
2014-Dec-14 01:31N 31°22' E 121°39'29295.1
2014-Dec-14 01:25N 31°40' E 121°12'4 4.9
2014-Dec-14 00:33N 31°42' E 121°08'7428990358.6
2014-Dec-14 00:32N 29°33' W 095°02'7417606867.0
2014-Dec-14 00:32N 31°23' E 121°34'5369.6
2014-Dec-14 00:31N 31°22' E 121°39'5 4.7
2014-Dec-13 23:33N 31°23' E 121°34'7417684675.2
2014-Dec-13 23:32N 29°33' W 095°02'7413296517.8
2014-Dec-13 23:31N 31°22' E 121°39'4 4.7
2014-Dec-13 22:33N 31°23' E 121°34'4110.1
2014-Dec-13 22:31N 31°22' E 121°39'5 4.7
2014-Dec-13 21:33N 31°23' E 121°34'5161.0
2014-Dec-13 21:31N 31°22' E 121°39'5 4.7
2014-Dec-13 20:34N 31°23' E 121°34'5104.2
2014-Dec-13 20:31N 31°22' E 121°39'5 4.7
2014-Dec-13 19:34N 31°23' E 121°34'5102.9
2014-Dec-13 19:31N 31°22' E 121°39'1 1.2
2014-Dec-13 18:33N 31°22' E 121°38'4525.8
2014-Dec-13 18:33N 31°23' E 121°34'0 0.0
2014-Dec-13 17:33N 31°23' E 121°34'5163.5
2014-Dec-13 17:31N 31°21' E 121°39'1010.7
2014-Dec-13 16:33N 31°26' E 121°29'10427.3
2014-Dec-13 16:31N 31°21' E 121°39'1919.4
2014-Dec-13 15:34N 31°31' E 121°21'19459.0
2014-Dec-13 15:31N 31°21' E 121°39'60194.6
2014-Dec-13 15:13N 32°00' E 120°46'6091.9
2014-Dec-13 14:33N 31°21' E 121°39'2716262.8
2014-Dec-13 14:33N 31°38' E 121°15'4038.2
2014-Dec-13 13:31N 31°60' E 120°36'672503.5
2014-Dec-13 13:29N 31°20' E 121°39'371633.9
2014-Dec-13 13:28N 31°44' E 121°06'3739.6
2014-Dec-13 12:32N 31°20' E 121°39'441204.9
2014-Dec-13 12:30N 31°47' E 120°58'6 6.6
2014-Dec-13 11:33N 31°52' E 120°53'503038.9
2014-Dec-13 11:32N 31°20' E 121°39'0 0.0
2014-Dec-13 10:32N 31°20' E 121°39'57134.6
2014-Dec-13 10:07N 31°59' E 120°50'5799.4
2014-Dec-13 09:32N 31°20' E 121°39'954087.5
2014-Dec-13 09:31N 29°48' E 122°05'150369.5
2014-Dec-13 09:07N 32°00' E 120°44'60108.6
2014-Dec-13 08:34N 31°21' E 121°38'621098.7
2014-Dec-13 08:30N 31°60' E 120°41'14629102.1
2014-Dec-13 08:30N 29°55' E 122°08'149158.5
2014-Dec-13 07:33N 32°01' E 120°35'1435251.4
2014-Dec-13 07:32N 29°59' E 122°02'87720.5
2014-Dec-13 07:24N 31°23' E 121°34'672052.0
2014-Dec-13 07:23N 32°02' E 120°31'6586675.6
2014-Dec-13 07:17N 22°58' E 113°32'3 3.8
2014-Dec-13 06:33N 23°01' E 113°32'657169043.6
2014-Dec-13 06:33N 32°04' E 120°29'569.0
2014-Dec-13 06:29N 32°01' E 120°25'70934.6
2014-Dec-13 06:24N 31°23' E 121°34'7284.0
2014-Dec-13 05:33N 32°01' E 120°23'7212276.8
2014-Dec-13 05:33N 31°23' E 121°34'114411527.2
2014-Dec-13 05:33N 29°32' E 122°06'605435371.4
2014-Dec-13 05:33N 23°01' E 113°32'646650.6
2014-Dec-13 04:33N 31°57' E 120°17'646290475.2
2014-Dec-13 04:33N 23°01' E 113°32'6062180002.1
2014-Dec-13 04:33N 29°39' E 122°01'11130635.6
2014-Dec-13 04:33N 31°26' E 121°29'9 9.3
2014-Dec-13 03:33N 31°32' E 121°20'6510134.7
2014-Dec-13 03:33N 31°56' E 120°09'64135502.4
2014-Dec-13 03:32N 23°01' E 113°32'5962700.4
2014-Dec-13 03:19N 29°37' E 121°49'126167.6
2014-Dec-13 02:33N 31°40' E 121°12'66146644.5
2014-Dec-13 02:33N 23°01' E 113°32'6394491.5
2014-Dec-13 02:24N 31°58' E 120°01'5463.0
2014-Dec-13 01:33N 31°46' E 121°03'66036564.7
2014-Dec-13 01:32N 23°01' E 113°32'6402226.8
2014-Dec-13 01:15N 32°03' E 119°56'5173.8
2014-Dec-13 00:34N 31°50' E 120°54'659790924.6
2014-Dec-13 00:33N 23°01' E 113°32'64247188.4
2014-Dec-13 00:33N 32°06' E 119°55'42198.6
2014-Dec-13 00:20N 32°02' E 120°45'7 8.6
2014-Dec-12 23:34N 31°58' E 120°51'66423428.3
2014-Dec-12 23:32N 23°01' E 113°32'6647886.0
2014-Dec-12 23:27N 32°02' E 120°45'2382.9
2014-Dec-12 23:10N 31°47' E 121°06'2338.6
2014-Dec-12 22:33N 32°00' E 120°43'661238018.8
2014-Dec-12 22:33N 23°01' E 113°32'6190225090.2
2014-Dec-12 22:32N 49°18' W 122°55'54035578.0
2014-Dec-12 21:34N 32°02' E 120°35'5396380867.4
2014-Dec-12 21:33N 49°17' W 123°05'54015481.7
2014-Dec-12 20:34N 32°03' E 120°26'655214381.5
2014-Dec-12 20:33N 23°01' E 113°32'6182309115.8
2014-Dec-12 20:32N 49°17' W 123°05'538026790.3
2014-Dec-12 20:20N 31°06' E 121°58'100128.7
2014-Dec-12 19:33N 31°57' E 120°17'9517136.5
2014-Dec-12 19:33N 31°08' E 121°53'661119000.1
2014-Dec-12 19:33N 23°01' E 113°32'618211128188.3
2014-Dec-12 19:33N 49°17' W 123°05'54225493.4
2014-Dec-12 18:33N 31°57' E 120°05'9915547.2
2014-Dec-12 18:33N 31°12' E 121°49'66164328.6
2014-Dec-12 18:32N 23°01' E 113°32'61821483732.1
2014-Dec-12 18:32N 49°17' W 123°05'54235532.0
2014-Dec-12 17:33N 32°04' E 119°56'54311955211.9
2014-Dec-12 17:33N 49°18' W 122°54'61914457458.9
2014-Dec-12 17:33N 23°01' E 113°32'662297803.9
2014-Dec-12 17:33N 31°16' E 121°45'111111.8
2014-Dec-12 16:34N 32°13' E 119°53'64793206.1
2014-Dec-12 16:33N 23°01' E 113°32'66233546.8
2014-Dec-12 16:32N 31°21' E 121°39'662679.4
2014-Dec-12 15:34N 23°01' E 113°32'6602845.3
2014-Dec-12 15:20N 31°26' E 121°29'4812502.0
2014-Dec-12 15:08N 38°54' E 117°56'9801703.0
2014-Dec-12 14:34N 23°01' E 113°32'6592566.3
2014-Dec-12 14:18N 31°32' E 121°21'659884.8
2014-Dec-12 13:33N 23°01' E 113°32'66179269.4
2014-Dec-12 13:33N 31°37' E 121°16'9 9.1
2014-Dec-12 12:33N 31°43' E 121°08'66035482.8
2014-Dec-12 12:32N 23°01' E 113°32'0 0.0
2014-Dec-12 11:33N 23°01' E 113°32'6599962.5
2014-Dec-12 11:29N 31°47' E 120°59'52545.5
2014-Dec-12 11:24N 31°59' E 119°60'639738.0
2014-Dec-12 10:32N 23°01' E 113°32'1 0.8
2014-Dec-12 09:33N 23°00' E 113°31'66336161.0
2014-Dec-12 09:32N 31°46' E 121°06'5 5.4
2014-Dec-12 08:33N 31°42' E 121°10'7 7.0
2014-Dec-12 07:33N 31°37' E 121°17'6 6.3
2014-Dec-12 06:34N 31°33' E 121°21'6 5.8
2014-Dec-12 05:33N 31°29' E 121°27'5 5.3
2014-Dec-12 04:33N 31°25' E 121°31'  
Track history (hours):
 
Tides and Currents Weather Stations Pressure Air Temp Water Temp Dewpoint Dewpoint Depression Visibility Wind Speed Wind Dir Waves Ship Positions

Paulistana II

Last reported at 2014-Dec-22 01:33 UTC. Time now 2014-Dec-22 02:05 UTC.
Position N 23°05' E 113°26'.

Length 6 m.

Type: Pollution control. MMSI: 316014038.

Date/timePositionNaut miles runAvg speedWind from/ knotsBaromVisibWave heightAir tempDewpointWater temp
2014-Dec-22 01:33N 23°05' E 113°26'66348695.5
2014-Dec-22 01:32N 31°22' E 121°39'81971.4
2014-Dec-22 01:32N 31°21' E 121°30'63250.9
2014-Dec-22 01:17N 32°01' E 120°34'4293089.4
2014-Dec-22 01:08N 38°51' E 117°56'9741672.2
2014-Dec-22 00:33N 23°05' E 113°26'660139709.2
2014-Dec-22 00:33N 31°24' E 121°31'48015285.4
2014-Dec-22 00:31N 38°51' E 117°55'48558152.1
2014-Dec-22 00:31N 31°22' E 121°39'663690.8
2014-Dec-21 23:33N 23°05' E 113°26'66316803.1
2014-Dec-21 23:31N 31°22' E 121°39'62583.9
2014-Dec-21 23:24N 32°04' E 120°45'337.7
2014-Dec-21 23:19N 32°01' E 120°44'661866.3
2014-Dec-21 22:33N 23°05' E 113°26'66319719.4
2014-Dec-21 22:31N 31°22' E 121°39'48910677.9
2014-Dec-21 22:29N 38°55' E 117°53'489531.3
2014-Dec-21 21:33N 31°22' E 121°39'48997877.5
2014-Dec-21 21:33N 38°55' E 117°53'977982.8
2014-Dec-21 20:33N 23°05' E 113°26'977146561.3
2014-Dec-21 20:33N 38°55' E 117°53'48958729.2
2014-Dec-21 20:33N 31°22' E 121°39'663666.3
2014-Dec-21 19:33N 23°05' E 113°26'66311930.2
2014-Dec-21 19:30N 31°22' E 121°39'48911668.6
2014-Dec-21 19:27N 38°55' E 117°53'9771089.4
2014-Dec-21 18:33N 23°05' E 113°26'977251249.5
2014-Dec-21 18:33N 38°55' E 117°53'48976604.1
2014-Dec-21 18:33N 31°22' E 121°39'3786.0
2014-Dec-21 18:07N 31°45' E 121°06'458809.4
2014-Dec-21 17:33N 38°55' E 117°53'977146563.9
2014-Dec-21 17:33N 23°05' E 113°26'66121620.6
2014-Dec-21 17:31N 31°42' E 121°10'321654.2
2014-Dec-21 17:30N 31°22' E 121°39'353891.3
2014-Dec-21 17:06N 25°46' E 119°39'376684.6
2014-Dec-21 16:33N 23°05' E 113°26'663119302.4
2014-Dec-21 16:33N 31°22' E 121°39'663670.2
2014-Dec-21 15:33N 23°05' E 113°26'66361179.9
2014-Dec-21 15:33N 31°22' E 121°39'663672.3
2014-Dec-21 14:33N 23°05' E 113°26'66345885.2
2014-Dec-21 14:33N 31°22' E 121°39'391451.6
2014-Dec-21 14:31N 31°45' E 121°03'3233.4
2014-Dec-21 13:33N 31°23' E 121°31'65962407.3
2014-Dec-21 13:33N 23°05' E 113°26'0 0.0
2014-Dec-21 12:33N 23°05' E 113°26'66359646.4
2014-Dec-21 12:33N 31°22' E 121°39'51190.5
2014-Dec-21 12:17N 31°53' E 120°53'660914.1
2014-Dec-21 11:33N 23°05' E 113°26'66312050.6
2014-Dec-21 11:30N 31°22' E 121°39'663693.0
2014-Dec-21 10:33N 23°05' E 113°26'66322509.6
2014-Dec-21 10:31N 31°22' E 121°39'4906066.9
2014-Dec-21 10:26N 38°53' E 117°45'4381321.0
2014-Dec-21 10:06N 32°00' E 120°42'62113.5
2014-Dec-21 09:33N 31°22' E 121°39'488351682.7
2014-Dec-21 09:33N 38°52' E 117°47'9733502642.6
2014-Dec-21 09:33N 23°05' E 113°26'0 0.0
2014-Dec-21 08:33N 23°05' E 113°26'65652481.1
2014-Dec-21 08:33N 32°00' E 120°34'681251.8
2014-Dec-21 08:29N 31°21' E 121°39'7176.0
2014-Dec-21 07:34N 32°01' E 120°31'7150851.4
2014-Dec-21 07:33N 31°21' E 121°39'661595258.8
2014-Dec-21 07:33N 23°05' E 113°26'97385457.0
2014-Dec-21 07:33N 38°52' E 117°48'4571039.4
2014-Dec-21 07:06N 31°45' E 121°10'3563.7
2014-Dec-21 06:33N 31°21' E 121°39'66128345.5
2014-Dec-21 06:32N 23°05' E 113°26'662682.4
2014-Dec-21 05:33N 31°40' E 121°16'243630.7
2014-Dec-21 05:33N 31°22' E 121°36'66117883.3
2014-Dec-21 05:31N 23°05' E 113°26'9733044.7
2014-Dec-21 05:12N 38°52' E 117°48'487767.4
2014-Dec-21 04:34N 31°22' E 121°36'661792865.5
2014-Dec-21 04:33N 23°05' E 113°26'32524878.5
2014-Dec-21 04:33N 24°53' E 119°02'42020697.9
2014-Dec-21 04:31N 31°35' E 121°19'1414.9
2014-Dec-21 03:34N 31°25' E 121°31'660475161.6
2014-Dec-21 03:33N 23°05' E 113°26'6612377820.0
2014-Dec-21 03:33N 31°31' E 121°24'42030258.6
2014-Dec-21 03:33N 24°51' E 118°59'418425.1
2014-Dec-21 02:34N 31°28' E 121°26'660593726.1
2014-Dec-21 02:33N 23°05' E 113°26'31942518.1
2014-Dec-21 02:33N 24°48' E 118°56'42115608.7
2014-Dec-21 02:31N 31°26' E 121°30'7722.4
2014-Dec-21 02:31N 31°21' E 121°26'1313.9
2014-Dec-21 01:33N 31°33' E 121°20'659395674.1
2014-Dec-21 01:33N 23°05' E 113°26'316103385.4
2014-Dec-21 01:33N 24°46' E 118°54'419137143.3
2014-Dec-21 01:33N 31°21' E 121°31'21786.3
2014-Dec-21 01:33N 31°22' E 121°28'656661.1
2014-Dec-21 00:33N 23°05' E 113°26'66055278.9
2014-Dec-21 00:32N 31°38' E 121°14'660664.7
2014-Dec-20 23:33N 23°05' E 113°26'660108038.9
2014-Dec-20 23:32N 31°38' E 121°14'50308.0
2014-Dec-20 23:23N 31°58' E 120°20'5 6.0
2014-Dec-20 22:32N 31°56' E 120°15'643578658.6
2014-Dec-20 22:32N 23°05' E 113°26'66013981.5
2014-Dec-20 22:29N 31°38' E 121°14'660705.3
2014-Dec-20 21:33N 23°05' E 113°26'66046607.4
2014-Dec-20 21:32N 31°38' E 121°14'0 0.1
2014-Dec-20 20:32N 31°38' E 121°14'6608803.2
2014-Dec-20 20:28N 23°05' E 113°26'0 0.0
2014-Dec-20 19:33N 23°05' E 113°26'66044018.4
2014-Dec-20 19:32N 31°38' E 121°14'660666.4
2014-Dec-20 18:33N 23°05' E 113°26'66067913.6
2014-Dec-20 18:32N 31°38' E 121°14'660666.8
2014-Dec-20 17:33N 23°05' E 113°26'66011211.5
2014-Dec-20 17:29N 31°38' E 121°14'4632655.5
2014-Dec-20 17:19N 24°22' E 118°18'8721145.9
2014-Dec-20 16:33N 38°53' E 117°52'975219370.9
2014-Dec-20 16:33N 23°05' E 113°26'66062548.5
2014-Dec-20 16:32N 31°38' E 121°14'660663.7
2014-Dec-20 15:33N 23°05' E 113°26'660113182.9
2014-Dec-20 15:32N 31°38' E 121°14'3 2.6
2014-Dec-20 14:34N 31°40' E 121°12'660198122.0
2014-Dec-20 14:33N 23°05' E 113°26'0 0.0
2014-Dec-20 13:33N 23°05' E 113°26'660139811.8
2014-Dec-20 13:33N 31°45' E 121°04'660653.5
2014-Dec-20 12:33N 23°05' E 113°26'65894810.8
2014-Dec-20 12:32N 31°50' E 120°54'658671.5
2014-Dec-20 11:33N 23°05' E 113°26'663341178.8
2014-Dec-20 11:33N 31°59' E 120°50'9 8.9
2014-Dec-20 10:33N 31°60' E 120°39'658474083.7
2014-Dec-20 10:33N 23°05' E 113°26'97310157.4
2014-Dec-20 10:28N 38°51' E 117°56'426471.5
2014-Dec-20 09:33N 32°04' E 120°31'658473483.0
2014-Dec-20 09:33N 23°05' E 113°26'651652.3
2014-Dec-20 08:34N 32°01' E 120°23'651292953.9
2014-Dec-20 08:33N 23°05' E 113°26'65974170.5
2014-Dec-20 08:33N 31°30' E 121°24'4556969.6
2014-Dec-20 08:29N 24°37' E 117°46'4671677.5
2014-Dec-20 08:12N 32°01' E 120°31'1319.8
2014-Dec-20 07:33N 31°57' E 120°17'64551582.9
2014-Dec-20 07:33N 23°05' E 113°26'65421226.8
2014-Dec-20 07:31N 32°02' E 120°28'42761492.8
2014-Dec-20 07:30N 38°49' E 117°52'86414888.6
2014-Dec-20 07:27N 24°25' E 118°02'265296.5
2014-Dec-20 06:33N 23°05' E 113°26'640768450.0
2014-Dec-20 06:33N 31°56' E 120°10'14500.0
2014-Dec-20 06:32N 32°01' E 120°26'4763526.4
2014-Dec-20 06:23N 24°25' E 117°53'86710404.5
2014-Dec-20 06:18N 38°52' E 117°47'428571.1
2014-Dec-20 05:33N 31°58' E 120°02'18572.8
2014-Dec-20 05:32N 31°60' E 120°23'65131256.1
2014-Dec-20 05:30N 23°04' E 113°26'648681.3
2014-Dec-20 04:33N 31°58' E 120°20'228654.6
2014-Dec-20 04:33N 32°04' E 119°55'64132050.5
2014-Dec-20 04:32N 23°04' E 113°26'648635.7
2014-Dec-20 03:31N 32°13' E 119°53'64838850.6
2014-Dec-20 03:30N 23°04' E 113°26'0 0.0
2014-Dec-20 02:32N 23°04' E 113°26'658641.2
2014-Dec-20 01:31N 31°19' E 121°33'65847382.5
2014-Dec-20 01:30N 23°04' E 113°26'659689.7
2014-Dec-20 00:33N 31°23' E 121°30'6593648.0
2014-Dec-20 00:22N 23°04' E 113°26'660818.2
2014-Dec-19 23:33N 31°26' E 121°29'66019813.0
2014-Dec-19 23:31N 23°04' E 113°26'0 0.0
2014-Dec-19 22:32N 23°04' E 113°26'6609357.3
2014-Dec-19 22:28N 31°30' E 121°24'539525861.0
2014-Dec-19 22:15N 49°18' W 122°53'53957707.6
2014-Dec-19 21:33N 31°33' E 121°19'6609106.6
2014-Dec-19 21:29N 23°04' E 113°26'0 0.0
2014-Dec-19 20:33N 23°04' E 113°26'66138391.3
2014-Dec-19 20:32N 31°38' E 121°14'6 6.3
2014-Dec-19 19:33N 31°42' E 121°09'6617905.2
2014-Dec-19 19:28N 23°04' E 113°26'1 1.1
2014-Dec-19 18:33N 23°05' E 113°26'6622383460.8
2014-Dec-19 18:33N 31°46' E 121°06'662662.1
2014-Dec-19 17:33N 23°05' E 113°26'650652.7
2014-Dec-19 16:33N 32°00' E 120°23'650180097.3
2014-Dec-19 16:33N 23°05' E 113°26'0 0.0
2014-Dec-19 15:33N 23°05' E 113°26'6555289.9
2014-Dec-19 15:26N 32°02' E 120°29'655745.7
2014-Dec-19 14:33N 23°05' E 113°26'6562390.4
2014-Dec-19 14:17N 32°02' E 120°31'656887.5
2014-Dec-19 13:32N 23°05' E 113°26'65662151.8
2014-Dec-19 13:32N 32°02' E 120°31'0 0.0
2014-Dec-19 12:33N 32°02' E 120°31'65654924.4
2014-Dec-19 12:32N 23°05' E 113°26'0 0.0
2014-Dec-19 11:33N 23°05' E 113°26'6563079.2
2014-Dec-19 11:21N 32°02' E 120°31'656827.2
2014-Dec-19 10:33N 23°05' E 113°26'6561776.4
2014-Dec-19 10:11N 32°02' E 120°31'6561046.9
2014-Dec-19 09:33N 23°05' E 113°26'6563863.9
2014-Dec-19 09:23N 32°02' E 120°31'656784.6
2014-Dec-19 08:33N 23°05' E 113°26'0 0.0
2014-Dec-19 07:33N 23°05' E 113°26'6383375.1
2014-Dec-19 07:22N 32°00' E 119°60'640791.7
2014-Dec-19 06:33N 23°01' E 113°32'64165884.9
2014-Dec-19 06:33N 31°58' E 120°05'7 7.1
2014-Dec-19 05:34N 31°57' E 120°13'64417289.5
2014-Dec-19 05:31N 23°01' E 113°32'650674.2
2014-Dec-19 04:33N 31°60' E 120°21'65015592.4
2014-Dec-19 04:31N 23°01' E 113°32'0 0.0
2014-Dec-19 03:33N 23°01' E 113°32'656786685.5
2014-Dec-19 03:33N 32°02' E 120°28'656663.7
2014-Dec-19 02:33N 23°01' E 113°32'658592168.0
2014-Dec-19 02:33N 32°01' E 120°35'311344.6
2014-Dec-19 02:32N 31°45' E 121°06'4552507.2
2014-Dec-19 02:21N 38°50' E 117°49'0 0.0
2014-Dec-19 01:33N 38°50' E 117°49'433194907.2
2014-Dec-19 01:33N 32°00' E 120°42'66131722.3
2014-Dec-19 01:32N 23°01' E 113°32'6652920.6
2014-Dec-19 01:18N 32°04' E 120°45'665889.9
2014-Dec-19 00:33N 23°01' E 113°32'9753712.5
2014-Dec-19 00:18N 38°50' E 117°49'4301813.5
2014-Dec-19 00:03N 32°04' E 120°45'6661315.7
2014-Dec-18 23:33N 23°01' E 113°32'9742985.0
2014-Dec-18 23:14N 38°50' E 117°49'9741412.2
2014-Dec-18 22:32N 23°01' E 113°32'659201.3
2014-Dec-18 19:16N 31°23' E 121°30'4 5.0
2014-Dec-18 18:30N 31°21' E 121°27'1 1.1
2014-Dec-18 17:26N 31°21' E 121°26'0 0.0
2014-Dec-18 16:27N 31°21' E 121°26'3134.0
2014-Dec-18 15:31N 31°47' E 121°06'6 5.8
2014-Dec-18 14:28N 31°42' E 121°09'25146.8
2014-Dec-18 14:18N 31°21' E 121°26'854.3
2014-Dec-18 14:09N 31°23' E 121°34'2337.3
2014-Dec-18 13:33N 31°38' E 121°15'6 5.9
2014-Dec-18 12:33N 31°34' E 121°19'47119700.7
2014-Dec-18 12:32N 38°52' E 117°48'1107.1
2014-Dec-18 12:31N 38°51' E 117°49'1 4.5
2014-Dec-18 12:20N 38°50' E 117°49'473614.0
2014-Dec-18 11:34N 31°31' E 121°25'4731077.4
2014-Dec-18 11:07N 38°50' E 117°49'478799.2
2014-Dec-18 10:31N 31°27' E 121°29'47823557.1
2014-Dec-18 10:30N 38°50' E 117°49'482508.3
2014-Dec-18 09:33N 31°24' E 121°31'480998.7
2014-Dec-18 09:04N 38°50' E 117°54'4 8.1
2014-Dec-18 08:33N 38°48' E 117°49'4858737.8
2014-Dec-18 08:30N 31°19' E 121°34'484116.5
2014-Dec-18 04:21N 38°47' E 117°50'4 2.0
2014-Dec-18 02:33N 38°47' E 117°55'5 4.7
2014-Dec-18 01:28N 38°49' E 117°49'479.8
2014-Dec-18 01:25N 38°48' E 117°54'4 4.8
2014-Dec-18 00:33N 38°50' E 117°49'4893532.7
2014-Dec-18 00:25N 31°17' E 121°34'774.0
2014-Dec-18 00:19N 31°22' E 121°28'1 1.4
2014-Dec-17 23:33N 31°22' E 121°29'35153.3
2014-Dec-17 23:33N 31°21' E 121°32'48711533.2
2014-Dec-17 23:31N 38°52' E 117°47'484504.9
2014-Dec-17 22:33N 31°24' E 121°31'5 4.6
2014-Dec-17 21:33N 31°27' E 121°27'5 4.7
2014-Dec-17 20:32N 31°30' E 121°23'5 5.3
2014-Dec-17 19:33N 31°34' E 121°18'4642124.4
2014-Dec-17 19:20N 38°47' E 117°52'518230385.5
2014-Dec-17 19:10N 49°18' W 122°53'53958662.4
2014-Dec-17 18:33N 31°38' E 121°14'5395202295.3
2014-Dec-17 18:31N 49°18' W 122°53'517916441.6
2014-Dec-17 18:12N 38°48' E 117°55'318.2
2014-Dec-17 18:04N 38°47' E 117°52'454879.5
2014-Dec-17 17:33N 31°42' E 121°09'454544375.5
2014-Dec-17 17:33N 38°47' E 117°55'0 0.4
2014-Dec-17 17:15N 38°47' E 117°55'1 0.8
2014-Dec-17 16:33N 38°47' E 117°54'44938503.9
2014-Dec-17 16:32N 31°46' E 121°06'4501897.4
2014-Dec-17 16:18N 38°47' E 117°52'1 1.8
2014-Dec-17 15:28N 38°47' E 117°54'1 3.3
2014-Dec-17 15:12N 38°47' E 117°55'1 0.9
2014-Dec-17 14:30N 38°47' E 117°56'410.0
2014-Dec-17 14:06N 38°47' E 117°51'1 2.4
2014-Dec-17 13:31N 38°48' E 117°53'3 7.8
2014-Dec-17 13:11N 38°47' E 117°56'0 0.0
2014-Dec-17 12:27N 38°47' E 117°56'0 0.3
2014-Dec-17 11:30N 38°47' E 117°56'115.5
2014-Dec-17 11:25N 38°47' E 117°54'2 1.4
2014-Dec-17 10:19N 38°47' E 117°56'2 2.3
2014-Dec-17 09:25N 38°47' E 117°53'233.2
2014-Dec-17 09:22N 38°47' E 117°56'2 1.8
2014-Dec-17 08:26N 38°46' E 117°56'2 1.7
2014-Dec-17 07:31N 38°45' E 117°54'8 3.7
2014-Dec-17 05:27N 38°53' E 117°56'4621652.4
2014-Dec-17 05:10N 31°39' E 121°13'3 4.8
2014-Dec-17 04:32N 31°41' E 121°10'4 3.9
2014-Dec-17 03:33N 31°43' E 121°06'415.4
2014-Dec-17 03:18N 31°47' E 121°06'0 0.5
2014-Dec-17 02:33N 31°47' E 121°06'45212513.8
2014-Dec-17 02:31N 38°50' E 117°52'798.2
2014-Dec-17 02:27N 38°53' E 117°44'4592003.9
2014-Dec-17 02:13N 31°45' E 121°04'454557.0
2014-Dec-17 01:24N 38°50' E 117°50'421475.8
2014-Dec-17 00:31N 32°02' E 119°57'711076.5
2014-Dec-17 00:27N 31°38' E 121°16'6672.7
2014-Dec-16 23:33N 31°58' E 120°03'706835.7
2014-Dec-16 23:32N 31°34' E 121°20'4732859.4
2014-Dec-16 23:23N 38°53' E 117°44'433529.4
2014-Dec-16 22:33N 31°56' E 120°09'692393.0
2014-Dec-16 22:32N 31°31' E 121°25'4 4.5
2014-Dec-16 21:33N 31°28' E 121°28'68122742.9
2014-Dec-16 21:33N 31°57' E 120°16'6 6.1
2014-Dec-16 20:33N 32°00' E 120°22'697311.4
2014-Dec-16 20:33N 31°25' E 121°32'43118.2
2014-Dec-16 20:11N 31°52' E 120°53'2539.1
2014-Dec-16 19:33N 32°04' E 120°28'2210025.5
2014-Dec-16 19:33N 31°55' E 120°52'492672.7
2014-Dec-16 19:32N 31°20' E 121°33'6464.8
2014-Dec-16 18:33N 32°02' E 120°35'1033.8
2014-Dec-16 18:14N 32°00' E 120°47'5 6.7
2014-Dec-16 17:33N 32°00' E 120°41'6 6.4
2014-Dec-16 16:33N 32°00' E 120°49'6 6.5
2014-Dec-16 15:33N 31°55' E 120°53'6647714.7
2014-Dec-16 15:28N 22°58' E 113°32'6584665.2
2014-Dec-16 15:20N 32°02' E 120°30'2633.1
2014-Dec-16 14:33N 31°48' E 120°56'283094.1
2014-Dec-16 14:33N 32°02' E 120°27'65424537.0
2014-Dec-16 14:31N 23°01' E 113°32'651670.4
2014-Dec-16 13:33N 31°60' E 120°23'39370.3
2014-Dec-16 13:27N 31°45' E 121°05'66134495.7
2014-Dec-16 13:26N 23°01' E 113°32'661758.0
2014-Dec-16 12:33N 31°41' E 121°11'66176774.1
2014-Dec-16 12:33N 23°01' E 113°32'661663.6
2014-Dec-16 11:33N 31°36' E 121°18'66133985.2
2014-Dec-16 11:32N 23°01' E 113°32'661678.8
2014-Dec-16 10:33N 31°31' E 121°24'661475718.1
2014-Dec-16 10:33N 23°01' E 113°32'660661.3
2014-Dec-16 09:33N 31°26' E 121°30'660237671.1
2014-Dec-16 09:33N 23°02' E 113°31'661663.3
2014-Dec-16 08:33N 31°23' E 121°36'66176810.3
2014-Dec-16 08:33N 23°02' E 113°31'662667.9
2014-Dec-16 07:33N 31°20' E 121°41'662238429.9
2014-Dec-16 07:33N 23°02' E 113°31'662663.3
2014-Dec-16 06:33N 31°20' E 121°41'6433170.0
2014-Dec-16 06:33N 32°00' E 120°42'66030478.9
2014-Dec-16 06:32N 23°01' E 113°32'662678.3
2014-Dec-16 05:33N 31°20' E 121°41'66274442.6
2014-Dec-16 05:33N 23°02' E 113°31'0 0.0
2014-Dec-16 04:27N 23°02' E 113°31'6627068.2
2014-Dec-16 04:22N 31°20' E 121°41'662801.5
2014-Dec-16 03:32N 23°02' E 113°31'66222261.6
2014-Dec-16 03:30N 31°20' E 121°41'662686.3
2014-Dec-16 02:33N 23°02' E 113°31'6623829.6
2014-Dec-16 02:22N 31°20' E 121°41'662546.8
2014-Dec-16 01:10N 23°02' E 113°31'66213689.6
2014-Dec-16 01:07N 31°20' E 121°41'662778.2
2014-Dec-16 00:16N 23°02' E 113°31'662938.6
2014-Dec-15 23:33N 31°20' E 121°41'66234030.5
2014-Dec-15 23:32N 23°02' E 113°31'662675.0
2014-Dec-15 22:33N 31°20' E 121°41'662340289.6
2014-Dec-15 22:33N 23°02' E 113°31'619222814.7
2014-Dec-15 22:17N 49°18' W 122°53'591670293.5
2014-Dec-15 22:12N 24°25' E 117°52'461717.6
2014-Dec-15 21:33N 31°20' E 121°41'662216547.9
2014-Dec-15 21:33N 23°02' E 113°31'61841855107.8
2014-Dec-15 21:33N 49°18' W 123°03'590529078.5
2014-Dec-15 21:21N 24°24' E 117°58'460581.3
2014-Dec-15 20:33N 31°20' E 121°41'662216546.5
2014-Dec-15 20:33N 23°02' E 113°31'6182138232.1
2014-Dec-15 20:31N 49°19' W 123°05'589751402.1
2014-Dec-15 20:24N 24°24' E 118°06'4672547.7
2014-Dec-15 20:13N 32°00' E 119°59'639972.3
2014-Dec-15 19:33N 23°02' E 113°31'61802781052.5
2014-Dec-15 19:33N 49°18' W 123°08'5893241078.1
2014-Dec-15 19:32N 24°21' E 118°12'46838267.5
2014-Dec-15 19:31N 31°58' E 120°02'9211876.1
2014-Dec-15 19:30N 31°20' E 121°41'0 0.0
2014-Dec-15 18:33N 31°20' E 121°41'662183232.9
2014-Dec-15 18:33N 23°02' E 113°31'61825564058.1
2014-Dec-15 18:33N 49°17' W 123°05'5420207576.2
2014-Dec-15 18:32N 31°57' E 120°08'8790.2
2014-Dec-15 17:33N 31°20' E 121°41'662264669.7
2014-Dec-15 17:33N 23°02' E 113°31'64318517.9
2014-Dec-15 17:31N 31°56' E 120°14'5425107893.4
2014-Dec-15 17:28N 49°18' W 122°53'53915916.4
2014-Dec-15 16:34N 31°20' E 121°41'7914274.6
2014-Dec-15 16:33N 31°59' E 120°19'648166591.5
2014-Dec-15 16:33N 23°02' E 113°31'661667.1
2014-Dec-15 15:34N 31°22' E 121°35'72130146.3
2014-Dec-15 15:33N 32°02' E 120°25'65473535.6
2014-Dec-15 15:33N 23°02' E 113°31'658663.0
2014-Dec-15 14:33N 32°04' E 120°32'693082.8
2014-Dec-15 14:32N 31°22' E 121°35'66125574.6
2014-Dec-15 14:30N 23°01' E 113°32'661694.4
2014-Dec-15 13:33N 31°22' E 121°35'6228063.2
2014-Dec-15 13:33N 32°00' E 120°37'65818370.7
2014-Dec-15 13:31N 23°01' E 113°32'663689.4
2014-Dec-15 12:33N 31°22' E 121°39'6637531.1
2014-Dec-15 12:28N 23°01' E 113°32'6642246.9
2014-Dec-15 12:10N 32°01' E 120°48'44512421.5
2014-Dec-15 12:08N 24°47' E 118°56'4 7.3
2014-Dec-15 11:33N 24°50' E 118°59'31912628.0
2014-Dec-15 11:32N 23°04' E 113°30'662238408.7
2014-Dec-15 11:32N 31°22' E 121°39'52178.9
2014-Dec-15 11:14N 31°56' E 120°52'662981.0
2014-Dec-15 10:33N 23°05' E 113°27'66316927.1
2014-Dec-15 10:31N 31°22' E 121°39'4943830.6
2014-Dec-15 10:31N 31°52' E 120°54'660687.7
2014-Dec-15 09:33N 23°05' E 113°27'65235561.4
2014-Dec-15 09:32N 32°01' E 120°25'743568.1
2014-Dec-15 09:31N 31°22' E 121°39'78500.1
2014-Dec-15 09:22N 31°57' E 120°17'38673.5
2014-Dec-15 09:18N 31°47' E 120°60'658880.5
2014-Dec-15 08:33N 23°06' E 113°27'64750659.3
2014-Dec-15 08:33N 31°58' E 120°22'752843.2
2014-Dec-15 08:31N 31°22' E 121°39'36275.1
2014-Dec-15 08:23N 31°45' E 121°06'3845.1
2014-Dec-15 07:33N 31°57' E 120°24'64840898.7
2014-Dec-15 07:32N 23°06' E 113°27'66237842.8
2014-Dec-15 07:31N 31°22' E 121°39'30103.1
2014-Dec-15 07:14N 31°41' E 121°12'4 5.2
2014-Dec-15 06:32N 31°38' E 121°15'6601187855.6
2014-Dec-15 06:32N 23°06' E 113°27'647211882.3
2014-Dec-15 06:32N 31°57' E 120°24'725213.8
2014-Dec-15 06:31N 31°22' E 121°39'2121.8
2014-Dec-15 05:33N 31°34' E 121°19'6592373496.3
2014-Dec-15 05:33N 23°06' E 113°27'6627404.2
2014-Dec-15 05:28N 31°22' E 121°39'663728.3
2014-Dec-15 04:33N 23°05' E 113°26'66095085.6
2014-Dec-15 04:33N 31°31' E 121°24'16187.5
2014-Dec-15 04:28N 31°22' E 121°39'57178.8
2014-Dec-15 04:09N 32°00' E 120°49'6641121.0
2014-Dec-15 03:33N 23°05' E 113°26'6601188616.4
2014-Dec-15 03:33N 31°28' E 121°28'11271.8
2014-Dec-15 03:31N 31°22' E 121°39'7 7.3
2014-Dec-15 02:33N 31°24' E 121°31'659474527.8
2014-Dec-15 02:33N 23°05' E 113°26'66318218.0
2014-Dec-15 02:31N 31°22' E 121°39'49181.3
2014-Dec-15 02:15N 31°52' E 120°54'659926.9
2014-Dec-15 01:32N 23°05' E 113°28'656214634.7
2014-Dec-15 01:32N 31°21' E 121°31'8474.4
2014-Dec-15 01:31N 31°22' E 121°39'8 7.9
2014-Dec-15 00:33N 31°21' E 121°31'65935406.5
2014-Dec-15 00:32N 22°59' E 113°32'66533251.2
2014-Dec-15 00:31N 31°22' E 121°39'8 7.7
2014-Dec-14 23:31N 31°21' E 121°31'83440.7
2014-Dec-14 23:31N 31°22' E 121°39'333757.5
2014-Dec-14 23:31N 31°43' E 121°08'2929.2
2014-Dec-14 22:31N 31°21' E 121°31'81448.5
2014-Dec-14 22:31N 31°22' E 121°39'8 7.9
2014-Dec-14 21:33N 31°21' E 121°31'8213.4
2014-Dec-14 21:31N 31°22' E 121°39'831.2
2014-Dec-14 21:16N 31°16' E 121°34'3 4.3
2014-Dec-14 20:32N 31°20' E 121°33'3352.0
2014-Dec-14 20:32N 31°21' E 121°31'8500.4
2014-Dec-14 20:31N 31°22' E 121°39'8 8.5
2014-Dec-14 19:33N 31°22' E 121°30'180.1
2014-Dec-14 19:32N 31°21' E 121°31'8357.5
2014-Dec-14 19:31N 31°22' E 121°39'734.0
2014-Dec-14 19:19N 31°24' E 121°31'2 2.1
2014-Dec-14 18:32N 31°25' E 121°30'4113.3
2014-Dec-14 18:30N 31°21' E 121°31'8186.0
2014-Dec-14 18:28N 31°22' E 121°39'11509.0
2014-Dec-14 18:27N 31°21' E 121°27'3 3.7
2014-Dec-14 17:33N 31°21' E 121°31'8872.3
2014-Dec-14 17:33N 31°28' E 121°26'13402.9
2014-Dec-14 17:31N 31°22' E 121°39'8 8.0
2014-Dec-14 16:33N 31°21' E 121°31'8213.1
2014-Dec-14 16:31N 31°22' E 121°39'18168.5
2014-Dec-14 16:24N 31°32' E 121°21'1315.6
2014-Dec-14 15:33N 31°21' E 121°31'8206.9
2014-Dec-14 15:31N 31°22' E 121°39'23633.7
2014-Dec-14 15:29N 31°35' E 121°17'1819.4
2014-Dec-14 14:33N 31°21' E 121°31'232240.3
2014-Dec-14 14:32N 31°39' E 121°13'281184.2
2014-Dec-14 14:31N 31°22' E 121°39'3334.3
2014-Dec-14 13:33N 31°42' E 121°08'2833824.4
2014-Dec-14 13:33N 31°21' E 121°31'8184.7
2014-Dec-14 13:31N 31°22' E 121°39'4899474.0
2014-Dec-14 13:28N 38°55' E 117°52'488539.3
2014-Dec-14 12:33N 31°21' E 121°31'323860.0
2014-Dec-14 12:33N 31°46' E 121°06'37436.6
2014-Dec-14 12:28N 31°22' E 121°39'3841.3
2014-Dec-14 11:33N 31°47' E 121°06'334624.4
2014-Dec-14 11:33N 31°21' E 121°31'8271.6
2014-Dec-14 11:31N 31°22' E 121°39'8 7.9
2014-Dec-14 10:33N 31°21' E 121°31'331114.2
2014-Dec-14 10:31N 31°47' E 121°06'38727.4
2014-Dec-14 10:28N 31°22' E 121°39'3841.0
2014-Dec-14 09:33N 31°47' E 121°06'332406.7
2014-Dec-14 09:32N 31°21' E 121°31'8483.0
2014-Dec-14 09:31N 31°22' E 121°39'8 7.9
2014-Dec-14 08:33N 31°21' E 121°31'8243.6
2014-Dec-14 08:31N 31°22' E 121°39'1111.3
2014-Dec-14 07:33N 31°21' E 121°27'3101.8
2014-Dec-14 07:31N 31°21' E 121°31'480576293.5
2014-Dec-14 07:31N 38°47' E 117°53'48278832.2
2014-Dec-14 07:31N 31°22' E 121°39'7 7.5
2014-Dec-14 06:33N 31°24' E 121°31'7219.8
2014-Dec-14 06:31N 31°22' E 121°39'836.6
2014-Dec-14 06:18N 31°23' E 121°30'4 4.8
2014-Dec-14 05:33N 31°23' E 121°34'551.7
2014-Dec-14 05:28N 31°22' E 121°39'5 4.9
2014-Dec-14 04:33N 31°23' E 121°34'534.4
2014-Dec-14 04:25N 31°22' E 121°39'5 5.2
2014-Dec-14 03:33N 31°23' E 121°34'5125.1
2014-Dec-14 03:31N 31°22' E 121°39'69264.6
2014-Dec-14 03:15N 32°02' E 120°32'3 4.8
2014-Dec-14 02:33N 32°01' E 120°36'6222450.3
2014-Dec-14 02:33N 31°23' E 121°34'48016465.8
2014-Dec-14 02:31N 38°48' E 117°53'48269433.7
2014-Dec-14 02:31N 31°22' E 121°39'5 4.7
2014-Dec-14 01:33N 31°23' E 121°34'74171668884.2
2014-Dec-14 01:32N 29°33' W 095°02'7413296516.1
2014-Dec-14 01:31N 31°22' E 121°39'29295.1
2014-Dec-14 01:25N 31°40' E 121°12'4 4.9
2014-Dec-14 00:33N 31°42' E 121°08'7428990358.6
2014-Dec-14 00:32N 29°33' W 095°02'7417606867.0
2014-Dec-14 00:32N 31°23' E 121°34'5369.6
2014-Dec-14 00:31N 31°22' E 121°39'5 4.7
2014-Dec-13 23:33N 31°23' E 121°34'7417684675.2
2014-Dec-13 23:32N 29°33' W 095°02'7413296517.8
2014-Dec-13 23:31N 31°22' E 121°39'4 4.7
2014-Dec-13 22:33N 31°23' E 121°34'4110.1
2014-Dec-13 22:31N 31°22' E 121°39'5 4.7
2014-Dec-13 21:33N 31°23' E 121°34'5161.0
2014-Dec-13 21:31N 31°22' E 121°39'5 4.7
2014-Dec-13 20:34N 31°23' E 121°34'5104.2
2014-Dec-13 20:31N 31°22' E 121°39'5 4.7
2014-Dec-13 19:34N 31°23' E 121°34'5102.9
2014-Dec-13 19:31N 31°22' E 121°39'1 1.2
2014-Dec-13 18:33N 31°22' E 121°38'4525.8
2014-Dec-13 18:33N 31°23' E 121°34'0 0.0
2014-Dec-13 17:33N 31°23' E 121°34'5163.5
2014-Dec-13 17:31N 31°21' E 121°39'1010.7
2014-Dec-13 16:33N 31°26' E 121°29'10427.3
2014-Dec-13 16:31N 31°21' E 121°39'1919.4
2014-Dec-13 15:34N 31°31' E 121°21'19459.0
2014-Dec-13 15:31N 31°21' E 121°39'60194.6
2014-Dec-13 15:13N 32°00' E 120°46'6091.9
2014-Dec-13 14:33N 31°21' E 121°39'2716262.8
2014-Dec-13 14:33N 31°38' E 121°15'4038.2
2014-Dec-13 13:31N 31°60' E 120°36'672503.5
2014-Dec-13 13:29N 31°20' E 121°39'371633.9
2014-Dec-13 13:28N 31°44' E 121°06'3739.6
2014-Dec-13 12:32N 31°20' E 121°39'441204.9
2014-Dec-13 12:30N 31°47' E 120°58'6 6.6
2014-Dec-13 11:33N 31°52' E 120°53'503038.9
2014-Dec-13 11:32N 31°20' E 121°39'0 0.0
2014-Dec-13 10:32N 31°20' E 121°39'57134.6
2014-Dec-13 10:07N 31°59' E 120°50'5799.4
2014-Dec-13 09:32N 31°20' E 121°39'954087.5
2014-Dec-13 09:31N 29°48' E 122°05'150369.5
2014-Dec-13 09:07N 32°00' E 120°44'60108.6
2014-Dec-13 08:34N 31°21' E 121°38'621098.7
2014-Dec-13 08:30N 31°60' E 120°41'14629102.1
2014-Dec-13 08:30N 29°55' E 122°08'149158.5
2014-Dec-13 07:33N 32°01' E 120°35'1435251.4
2014-Dec-13 07:32N 29°59' E 122°02'87720.5
2014-Dec-13 07:24N 31°23' E 121°34'672052.0
2014-Dec-13 07:23N 32°02' E 120°31'6586675.6
2014-Dec-13 07:17N 22°58' E 113°32'3 3.8
2014-Dec-13 06:33N 23°01' E 113°32'657169043.6
2014-Dec-13 06:33N 32°04' E 120°29'569.0
2014-Dec-13 06:29N 32°01' E 120°25'70934.6
2014-Dec-13 06:24N 31°23' E 121°34'7284.0
2014-Dec-13 05:33N 32°01' E 120°23'7212276.8
2014-Dec-13 05:33N 31°23' E 121°34'114411527.2
2014-Dec-13 05:33N 29°32' E 122°06'605435371.4
2014-Dec-13 05:33N 23°01' E 113°32'646650.6
2014-Dec-13 04:33N 31°57' E 120°17'646290475.2
2014-Dec-13 04:33N 23°01' E 113°32'6062180002.1
2014-Dec-13 04:33N 29°39' E 122°01'11130635.6
2014-Dec-13 04:33N 31°26' E 121°29'9 9.3
2014-Dec-13 03:33N 31°32' E 121°20'6510134.7
2014-Dec-13 03:33N 31°56' E 120°09'64135502.4
2014-Dec-13 03:32N 23°01' E 113°32'5962700.4
2014-Dec-13 03:19N 29°37' E 121°49'126167.6
2014-Dec-13 02:33N 31°40' E 121°12'66146644.5
2014-Dec-13 02:33N 23°01' E 113°32'6394491.5
2014-Dec-13 02:24N 31°58' E 120°01'5463.0
2014-Dec-13 01:33N 31°46' E 121°03'66036564.7
2014-Dec-13 01:32N 23°01' E 113°32'6402226.8
2014-Dec-13 01:15N 32°03' E 119°56'5173.8
2014-Dec-13 00:34N 31°50' E 120°54'659790924.6
2014-Dec-13 00:33N 23°01' E 113°32'64247188.4
2014-Dec-13 00:33N 32°06' E 119°55'42198.6
2014-Dec-13 00:20N 32°02' E 120°45'7 8.6
2014-Dec-12 23:34N 31°58' E 120°51'66423428.3
2014-Dec-12 23:32N 23°01' E 113°32'6647886.0
2014-Dec-12 23:27N 32°02' E 120°45'2382.9
2014-Dec-12 23:10N 31°47' E 121°06'2338.6
2014-Dec-12 22:33N 32°00' E 120°43'661238018.8
2014-Dec-12 22:33N 23°01' E 113°32'6190225090.2
2014-Dec-12 22:32N 49°18' W 122°55'54035578.0
2014-Dec-12 21:34N 32°02' E 120°35'5396380867.4
2014-Dec-12 21:33N 49°17' W 123°05'54015481.7
2014-Dec-12 20:34N 32°03' E 120°26'655214381.5
2014-Dec-12 20:33N 23°01' E 113°32'6182309115.8
2014-Dec-12 20:32N 49°17' W 123°05'538026790.3
2014-Dec-12 20:20N 31°06' E 121°58'100128.7
2014-Dec-12 19:33N 31°57' E 120°17'9517136.5
2014-Dec-12 19:33N 31°08' E 121°53'661119000.1
2014-Dec-12 19:33N 23°01' E 113°32'618211128188.3
2014-Dec-12 19:33N 49°17' W 123°05'54225493.4
2014-Dec-12 18:33N 31°57' E 120°05'9915547.2
2014-Dec-12 18:33N 31°12' E 121°49'66164328.6
2014-Dec-12 18:32N 23°01' E 113°32'61821483732.1
2014-Dec-12 18:32N 49°17' W 123°05'54235532.0
2014-Dec-12 17:33N 32°04' E 119°56'54311955211.9
2014-Dec-12 17:33N 49°18' W 122°54'61914457458.9
2014-Dec-12 17:33N 23°01' E 113°32'662297803.9
2014-Dec-12 17:33N 31°16' E 121°45'111111.8
2014-Dec-12 16:34N 32°13' E 119°53'64793206.1
2014-Dec-12 16:33N 23°01' E 113°32'66233546.8
2014-Dec-12 16:32N 31°21' E 121°39'662679.4
2014-Dec-12 15:34N 23°01' E 113°32'6602845.3
2014-Dec-12 15:20N 31°26' E 121°29'4812502.0
2014-Dec-12 15:08N 38°54' E 117°56'9801703.0
2014-Dec-12 14:34N 23°01' E 113°32'6592566.3
2014-Dec-12 14:18N 31°32' E 121°21'659884.8
2014-Dec-12 13:33N 23°01' E 113°32'66179269.4
2014-Dec-12 13:33N 31°37' E 121°16'9 9.1
2014-Dec-12 12:33N 31°43' E 121°08'66035482.8
2014-Dec-12 12:32N 23°01' E 113°32'0 0.0
2014-Dec-12 11:33N 23°01' E 113°32'6599962.5
2014-Dec-12 11:29N 31°47' E 120°59'52545.5
2014-Dec-12 11:24N 31°59' E 119°60'639738.0
2014-Dec-12 10:32N 23°01' E 113°32'1 0.8
2014-Dec-12 09:33N 23°00' E 113°31'66336161.0
2014-Dec-12 09:32N 31°46' E 121°06'5 5.4
2014-Dec-12 08:33N 31°42' E 121°10'7 7.0
2014-Dec-12 07:33N 31°37' E 121°17'6 6.3
2014-Dec-12 06:34N 31°33' E 121°21'6 5.8
2014-Dec-12 05:33N 31°29' E 121°27'5 5.3
2014-Dec-12 04:33N 31°25' E 121°31'  

Dump ship's entire track history